Tignish, Canada
Current Conditions -  °F | °C
As of 7:00 PM on Friday 31 Oct 2014 (Local Time) from CYYG Reporting Station
Broken Clouds Broken Clouds  
Wind Chill: 41°   Ceiling: 6000
Heat Index: 41°   Visibility: 15mi
Dew Point: 34°   Wind: 3mph
Humidity: 76%   Direction: 340°NNW
Pressure: 30.12"   Gusts: NA
Location:  46.95°N, 64.03°W
Report Text: CYYG 312200Z 34003KT 15SM BKN060 05/01 A3012 RMK SC6 SLP202
Loading
Personal Weather Stations






























Interactive Weather Map
Tropical Storm Tracking
New forecast layout! Learn more

10-Day Weather Forecast

Advertisements
Track Severe Weather on mobile